Terminal Aerodrome Forecast
Issued by NWS

Home | Current Version | Previous Version | Graphics & Text | Print | Product List | Glossary On
Versions: 1 2 3 4 5 6 7 8 9 10 11 12 13 14 15 16
000
FTUS43 KMPX 291700
TAFRNH
TAF
KRNH 291736Z 2918/3018 03010KT P6SM BKN020 BKN035
     FM292100 04009KT P6SM SCT020 BKN035
     FM292300 04006KT P6SM SCT035
     FM300900 08007KT 5SM BR SCT008
     FM301500 10008KT P6SM SCT025 SCT250=

USA.gov is the U.S. government's official web portal to all federal, state and local government web resources and services.